Time;durP1;ratioP1;P1;durP2;ratioP2;P2;SDS_P1;SDS_P2;PMS_P1;PMS_P2;Temp;Humidity;BMP_temperature;BMP_pressure;BME280_temperature;BME280_humidity;BME280_pressure;Samples;Min_cycle;Max_cycle;Signal;HPM_P1;HPM_P2
2021/07/10 00:00:12;;;;;;;11.43;6.88;;;;;;;16.02;74.24;101733.53;5056225;28;20043;-70
2021/07/10 00:02:38;;;;;;;11.05;6.63;;;;;;;16.05;74.06;101724.53;5029512;28;20025;-70
2021/07/10 00:05:04;;;;;;;14.57;7.13;;;;;;;16.09;73.92;101725.84;5030938;28;20029;-70
2021/07/10 00:07:30;;;;;;;11.40;7.30;;;;;;;16.13;73.68;101712.25;5041828;28;20042;-71
2021/07/10 00:09:55;;;;;;;12.27;6.57;;;;;;;16.17;73.25;101701.44;5026000;28;20095;-70
2021/07/10 00:12:21;;;;;;;10.13;7.50;;;;;;;16.21;72.91;101706.16;5030234;28;20071;-70
2021/07/10 00:14:46;;;;;;;13.35;6.70;;;;;;;16.27;72.68;101707.28;5047519;28;20017;-70
2021/07/10 00:17:12;;;;;;;12.55;7.20;;;;;;;16.26;72.77;101703.03;5047301;28;20036;-70
2021/07/10 00:19:38;;;;;;;10.20;6.43;;;;;;;16.23;72.87;101698.13;5034834;28;20388;-70
2021/07/10 00:22:03;;;;;;;11.68;6.53;;;;;;;16.19;73.03;101692.44;5012806;28;20055;-70
2021/07/10 00:24:31;;;;;;;10.13;6.20;;;;;;;16.18;73.05;101692.59;5032750;28;20035;-70
2021/07/10 00:26:58;;;;;;;11.80;7.53;;;;;;;16.18;72.76;101695.22;5057220;28;20033;-70
2021/07/10 00:29:24;;;;;;;11.45;7.00;;;;;;;16.18;72.79;101692.59;5040830;28;20028;-71
2021/07/10 00:31:51;;;;;;;10.93;7.32;;;;;;;16.18;72.66;101695.22;5033712;28;20041;-71
2021/07/10 00:34:16;;;;;;;12.98;7.80;;;;;;;16.16;72.83;101695.38;5032109;28;20033;-70
2021/07/10 00:36:42;;;;;;;12.00;8.02;;;;;;;16.12;73.06;101694.94;5040646;28;20028;-71
2021/07/10 00:39:07;;;;;;;13.20;8.10;;;;;;;16.11;73.25;101693.28;5031450;28;20029;-71
2021/07/10 00:41:33;;;;;;;13.93;8.52;;;;;;;16.12;73.30;101694.09;5041609;28;20025;-71
2021/07/10 00:43:58;;;;;;;16.33;8.77;;;;;;;16.10;73.33;101691.66;5052110;28;20025;-71
2021/07/10 00:46:24;;;;;;;16.70;8.57;;;;;;;16.08;73.54;101684.97;5034625;28;20037;-70
2021/07/10 00:48:49;;;;;;;12.10;8.50;;;;;;;16.00;73.71;101677.16;5049933;28;20021;-71
2021/07/10 00:51:16;;;;;;;13.70;8.65;;;;;;;15.85;74.14;101675.25;5039203;28;20385;-71
2021/07/10 00:53:42;;;;;;;10.77;8.13;;;;;;;15.68;74.59;101669.22;5037333;28;20024;-71
2021/07/10 00:56:08;;;;;;;11.52;7.57;;;;;;;15.54;74.78;101664.72;5053672;28;20029;-71
2021/07/10 00:58:34;;;;;;;12.05;7.60;;;;;;;15.46;75.01;101664.72;5039040;28;20468;-71
2021/07/10 01:01:02;;;;;;;13.20;8.55;;;;;;;15.51;74.95;101667.66;5039006;28;20503;-70
2021/07/10 01:03:33;;;;;;;12.40;8.35;;;;;;;15.56;74.65;101665.38;5034460;28;20021;-71
2021/07/10 01:06:00;;;;;;;12.05;8.05;;;;;;;15.61;74.07;101668.25;5039413;28;20028;-71
2021/07/10 01:08:25;;;;;;;14.05;8.05;;;;;;;15.64;74.15;101673.16;5053535;28;20021;-71
2021/07/10 01:10:52;;;;;;;14.48;8.88;;;;;;;15.65;74.44;101666.13;5054378;28;20457;-71
2021/07/10 01:13:19;;;;;;;15.68;9.63;;;;;;;15.67;74.51;101674.63;5036516;28;20031;-71
2021/07/10 01:15:44;;;;;;;14.15;10.35;;;;;;;15.64;74.23;101670.56;5036384;28;20116;-70
2021/07/10 01:18:10;;;;;;;10.77;7.57;;;;;;;15.61;74.23;101664.84;5047553;28;20041;-71
2021/07/10 01:20:54;;;;;;;12.15;8.63;;;;;;;15.55;74.34;101661.09;5054523;28;20024;-71
2021/07/10 01:23:21;;;;;;;11.20;8.05;;;;;;;15.49;74.59;101659.97;5031947;28;20029;-71
2021/07/10 01:25:47;;;;;;;11.00;7.85;;;;;;;15.49;74.46;101657.38;5031845;28;20403;-71
2021/07/10 01:28:16;;;;;;;14.82;9.25;;;;;;;15.49;74.42;101654.75;5035437;28;20052;-71
2021/07/10 01:30:43;;;;;;;13.35;9.77;;;;;;;15.46;74.46;101649.84;5037886;28;20039;-71
2021/07/10 01:33:09;;;;;;;16.25;9.57;;;;;;;15.43;74.73;101652.00;5034175;28;20045;-71
2021/07/10 01:35:35;;;;;;;11.50;8.05;;;;;;;15.36;74.78;101652.66;5008319;28;20025;-70
2021/07/10 01:38:03;;;;;;;12.70;8.60;;;;;;;15.33;75.00;101649.56;5049994;28;20120;-70
2021/07/10 01:40:28;;;;;;;13.70;8.32;;;;;;;15.29;74.81;101650.88;5032002;28;20682;-71
2021/07/10 01:42:55;;;;;;;11.43;7.88;;;;;;;15.20;75.09;101637.03;5037480;28;20021;-71
2021/07/10 01:45:22;;;;;;;17.88;9.18;;;;;;;15.10;75.29;101641.59;5033992;28;20033;-70
2021/07/10 01:47:50;;;;;;;11.95;7.95;;;;;;;14.99;75.54;101637.53;5014547;28;20033;-71
2021/07/10 01:50:17;;;;;;;14.77;7.75;;;;;;;14.92;75.63;101633.97;5034119;28;20120;-71
2021/07/10 01:52:43;;;;;;;15.65;8.25;;;;;;;14.88;75.61;101627.41;5031573;28;20033;-71
2021/07/10 01:55:11;;;;;;;13.15;7.97;;;;;;;14.86;75.84;101632.81;5033254;28;20306;-71
2021/07/10 01:57:38;;;;;;;14.73;8.73;;;;;;;14.83;75.90;101633.13;5019346;28;20313;-71
2021/07/10 02:00:17;;;;;;;14.45;8.60;;;;;;;14.83;76.16;101627.91;5053288;28;20453;-70
2021/07/10 02:02:42;;;;;;;13.02;8.95;;;;;;;14.86;75.83;101625.00;5029625;28;20558;-70
2021/07/10 02:05:10;;;;;;;13.93;8.35;;;;;;;14.88;75.50;101623.03;5039302;28;20099;-70
2021/07/10 02:07:36;;;;;;;11.35;8.20;;;;;;;14.91;75.67;101624.47;5034606;28;20037;-69
2021/07/10 02:10:05;;;;;;;14.55;8.55;;;;;;;14.90;75.45;101618.44;5030883;28;20104;-70
2021/07/10 02:12:30;;;;;;;16.27;8.25;;;;;;;14.82;75.80;101615.81;5048379;28;20159;-71
2021/07/10 02:14:56;;;;;;;11.80;8.10;;;;;;;14.75;75.91;101615.69;5014376;28;20025;-71
2021/07/10 02:17:21;;;;;;;13.93;8.52;;;;;;;14.76;76.04;101616.50;5014183;28;20032;-71
2021/07/10 02:19:46;;;;;;;17.80;8.55;;;;;;;14.78;76.01;101617.13;5032415;28;20285;-71
2021/07/10 02:22:12;;;;;;;13.35;8.45;;;;;;;14.81;75.65;101614.22;5034830;28;20044;-70
2021/07/10 02:24:38;;;;;;;13.70;8.52;;;;;;;14.82;75.67;101610.59;5047515;28;20020;-70
2021/07/10 02:27:03;;;;;;;13.77;8.15;;;;;;;14.83;75.56;101614.84;5030280;28;20040;-71
2021/07/10 02:29:29;;;;;;;14.75;8.32;;;;;;;14.79;75.52;101613.56;5031448;28;20039;-71
2021/07/10 02:31:55;;;;;;;13.82;7.95;;;;;;;14.76;75.65;101612.06;5048177;28;20021;-70
2021/07/10 02:34:20;;;;;;;13.65;8.40;;;;;;;14.75;75.97;101612.25;5029089;28;20033;-71
2021/07/10 02:36:46;;;;;;;14.25;9.85;;;;;;;14.75;76.45;101602.63;5013420;28;20028;-70
2021/07/10 02:39:12;;;;;;;18.67;9.02;;;;;;;14.74;76.63;101600.19;5031232;28;20043;-70
2021/07/10 02:41:37;;;;;;;15.48;9.43;;;;;;;14.75;76.86;101596.59;5051791;28;20476;-71
2021/07/10 02:44:05;;;;;;;13.88;9.38;;;;;;;14.74;76.98;101602.78;5029363;28;20392;-70
2021/07/10 02:46:31;;;;;;;15.43;8.80;;;;;;;14.74;77.03;101598.38;5047950;28;20288;-70
2021/07/10 02:48:58;;;;;;;15.60;9.75;;;;;;;14.73;76.96;101588.94;5049007;28;20032;-70
2021/07/10 02:51:25;;;;;;;12.52;8.30;;;;;;;14.60;76.88;101583.38;5029714;28;20564;-70
2021/07/10 02:53:53;;;;;;;12.35;7.85;;;;;;;14.45;77.14;101588.41;5044489;28;20184;-71
2021/07/10 02:56:22;;;;;;;11.85;7.65;;;;;;;14.31;77.01;101592.44;5012999;28;20091;-71
2021/07/10 02:58:49;;;;;;;11.57;6.80;;;;;;;14.23;77.17;101583.81;5035185;28;20055;-70
2021/07/10 03:01:14;;;;;;;12.02;7.13;;;;;;;14.16;77.27;101586.25;5030640;28;20027;-70
2021/07/10 03:03:40;;;;;;;11.48;7.53;;;;;;;14.10;77.53;101582.47;5028791;28;20390;-70
2021/07/10 03:06:05;;;;;;;14.23;8.70;;;;;;;14.12;77.54;101577.91;5029530;28;20398;-71
2021/07/10 03:08:31;;;;;;;11.63;7.93;;;;;;;14.15;77.29;101575.00;5012660;28;20060;-70
2021/07/10 03:10:57;;;;;;;16.02;8.95;;;;;;;14.14;77.26;101573.34;5048433;28;20475;-70
2021/07/10 03:13:22;;;;;;;14.02;8.25;;;;;;;14.08;77.36;101575.81;5047636;28;20049;-69
2021/07/10 03:15:49;;;;;;;17.75;9.43;;;;;;;14.02;77.41;101578.06;5035384;28;20391;-71
2021/07/10 03:18:14;;;;;;;15.60;8.15;;;;;;;13.97;77.62;101572.50;5032550;28;20037;-70
2021/07/10 03:20:40;;;;;;;19.00;9.75;;;;;;;13.93;77.44;101565.16;5031560;28;20067;-71
2021/07/10 03:23:05;;;;;;;15.10;8.77;;;;;;;13.89;77.98;101574.28;5032727;28;20021;-70
2021/07/10 03:25:31;;;;;;;12.73;8.73;;;;;;;13.89;78.28;101567.28;5048009;28;20029;-70
2021/07/10 03:27:57;;;;;;;12.60;8.18;;;;;;;13.89;78.32;101571.69;5035592;28;20395;-70
2021/07/10 03:30:24;;;;;;;11.60;8.48;;;;;;;13.87;78.15;101569.22;5045224;28;20075;-70
2021/07/10 03:32:50;;;;;;;12.32;8.20;;;;;;;13.82;78.35;101566.28;5038577;28;20087;-70
2021/07/10 03:35:17;;;;;;;12.80;8.50;;;;;;;13.80;78.27;101566.44;5052680;28;20548;-70
2021/07/10 03:37:43;;;;;;;13.45;8.05;;;;;;;13.78;78.27;101573.59;5055820;28;20075;-69
2021/07/10 03:40:11;;;;;;;13.63;8.20;;;;;;;13.76;78.34;101570.34;5038216;28;20505;-70
2021/07/10 03:42:38;;;;;;;12.10;8.30;;;;;;;13.75;78.73;101560.91;5035423;28;20494;-69
2021/07/10 03:45:09;;;;;;;14.95;8.82;;;;;;;13.77;78.65;101563.34;5039477;28;20032;-70
2021/07/10 03:47:35;;;;;;;17.63;8.93;;;;;;;13.77;78.70;101564.16;5036249;28;20082;-70
2021/07/10 03:50:03;;;;;;;14.90;9.38;;;;;;;13.76;78.95;101553.88;5050721;28;20044;-70
2021/07/10 03:52:28;;;;;;;16.67;10.15;;;;;;;13.76;79.16;101553.88;5052260;28;20021;-70
2021/07/10 03:54:53;;;;;;;17.20;9.32;;;;;;;13.75;79.33;101557.44;5034340;28;20033;-70
2021/07/10 03:57:19;;;;;;;17.67;9.95;;;;;;;13.78;79.50;101557.97;5057987;28;20044;-70
2021/07/10 03:59:44;;;;;;;18.10;9.80;;;;;;;13.80;79.53;101548.19;5043943;28;20495;-70
2021/07/10 04:02:10;;;;;;;21.23;10.15;;;;;;;13.86;79.62;101553.75;5034485;28;20028;-71
2021/07/10 04:04:35;;;;;;;16.40;10.25;;;;;;;13.90;79.60;101545.47;5039057;28;20471;-70
2021/07/10 04:07:01;;;;;;;18.65;10.98;;;;;;;13.94;79.74;101551.19;5041704;28;20047;-70
2021/07/10 04:09:26;;;;;;;17.10;10.13;;;;;;;13.98;79.87;101549.88;5036974;28;20039;-70
2021/07/10 04:11:52;;;;;;;18.85;10.18;;;;;;;14.02;80.04;101551.19;5056563;28;20048;-70
2021/07/10 04:14:18;;;;;;;17.63;11.02;;;;;;;14.08;80.05;101558.34;5050075;28;20039;-70
2021/07/10 04:16:44;;;;;;;22.05;12.30;;;;;;;14.12;80.44;101561.47;5018153;28;20259;-69
2021/07/10 04:19:09;;;;;;;18.38;10.63;;;;;;;14.17;80.48;101559.19;5036913;28;20033;-70
2021/07/10 04:21:35;;;;;;;21.05;11.15;;;;;;;14.24;80.42;101561.97;5019021;28;20410;-70
2021/07/10 04:24:00;;;;;;;19.92;11.43;;;;;;;14.30;80.40;101559.53;5031977;28;20028;-70
2021/07/10 04:26:26;;;;;;;17.05;10.38;;;;;;;14.35;80.16;101561.63;5034746;28;20387;-70
2021/07/10 04:28:51;;;;;;;20.38;11.07;;;;;;;14.39;80.42;101562.94;5049849;28;20029;-71
2021/07/10 04:31:17;;;;;;;21.73;12.13;;;;;;;14.42;80.75;101552.19;5055721;28;20461;-71
2021/07/10 04:33:42;;;;;;;32.50;14.27;;;;;;;14.49;80.87;101552.38;5036487;28;20057;-71
2021/07/10 04:36:08;;;;;;;21.02;11.65;;;;;;;14.46;81.07;101545.66;5060228;28;20025;-71
2021/07/10 04:38:37;;;;;;;21.50;11.65;;;;;;;14.48;81.10;101556.75;5041052;28;20483;-71
2021/07/10 04:41:06;;;;;;;17.08;10.88;;;;;;;14.53;80.85;101551.88;5037592;28;20059;-70
2021/07/10 04:43:33;;;;;;;24.38;11.63;;;;;;;14.56;80.92;101555.94;5027254;28;20108;-71
2021/07/10 04:45:59;;;;;;;22.63;12.15;;;;;;;14.60;80.70;101542.44;5057463;28;20025;-71
2021/07/10 04:48:25;;;;;;;21.98;11.02;;;;;;;14.67;80.59;101545.19;5034876;28;20445;-70
2021/07/10 04:50:50;;;;;;;20.73;10.27;;;;;;;14.71;80.66;101548.28;5017545;28;20058;-71
2021/07/10 04:53:16;;;;;;;20.98;11.48;;;;;;;14.74;81.11;101543.56;5061091;28;20483;-71
2021/07/10 04:55:42;;;;;;;25.15;12.07;;;;;;;14.77;81.59;101545.84;5050470;28;20075;-71
2021/07/10 04:58:07;;;;;;;19.02;10.85;;;;;;;14.83;81.82;101551.41;5035781;28;20250;-71
2021/07/10 05:00:33;;;;;;;20.50;10.10;;;;;;;14.89;81.52;101551.53;5044543;28;20031;-71
2021/07/10 05:02:58;;;;;;;21.10;10.25;;;;;;;14.96;81.23;101549.09;5052917;28;20601;-70
2021/07/10 05:05:24;;;;;;;22.83;11.30;;;;;;;15.04;80.79;101556.09;5054122;28;20021;-71
2021/07/10 05:07:49;;;;;;;23.60;10.68;;;;;;;15.10;80.69;101556.22;5049516;28;20453;-71
2021/07/10 05:10:16;;;;;;;25.63;11.18;;;;;;;15.16;80.37;101559.94;5028967;28;20086;-71
2021/07/10 05:12:42;;;;;;;25.80;10.48;;;;;;;15.21;80.29;101555.03;5047098;28;20025;-71
2021/07/10 05:15:08;;;;;;;21.50;11.75;;;;;;;15.27;80.20;101556.97;5013582;28;20033;-72
2021/07/10 05:17:34;;;;;;;19.10;10.45;;;;;;;15.32;79.88;101559.91;5054656;28;20030;-71
2021/07/10 05:19:59;;;;;;;25.30;12.18;;;;;;;15.38;80.00;101563.66;5035318;28;20037;-71
2021/07/10 05:22:25;;;;;;;21.10;10.73;;;;;;;15.43;80.02;101563.16;5050269;28;20478;-71
2021/07/10 05:24:50;;;;;;;31.92;14.25;;;;;;;15.54;79.79;101560.16;5030839;28;20160;-70
2021/07/10 05:27:16;;;;;;;27.02;11.73;;;;;;;15.70;78.86;101551.41;5038697;28;20090;-70
2021/07/10 05:29:41;;;;;;;24.63;12.77;;;;;;;15.75;79.07;101557.78;5027388;28;20029;-71
2021/07/10 05:32:07;;;;;;;20.08;11.50;;;;;;;15.66;79.27;101550.94;5040375;28;20028;-71
2021/07/10 05:34:33;;;;;;;22.70;10.32;;;;;;;15.65;79.47;101545.88;5025110;28;20094;-71
2021/07/10 05:36:58;;;;;;;23.15;11.95;;;;;;;15.70;79.70;101554.84;5032295;28;20426;-71
2021/07/10 05:39:24;;;;;;;25.52;12.20;;;;;;;15.81;78.91;101548.44;5036593;28;20549;-71
2021/07/10 05:41:49;;;;;;;22.33;10.73;;;;;;;15.87;78.81;101547.75;5036739;28;20040;-70
2021/07/10 05:44:15;;;;;;;18.92;10.88;;;;;;;15.94;78.44;101545.28;5040941;28;20255;-70
2021/07/10 05:46:40;;;;;;;16.98;10.23;;;;;;;16.05;77.56;101550.09;5038020;28;20039;-71
2021/07/10 05:49:06;;;;;;;23.42;9.63;;;;;;;16.14;76.93;101543.00;5034475;28;20056;-71
2021/07/10 05:51:31;;;;;;;22.05;9.52;;;;;;;16.24;76.61;101546.22;5036745;28;20502;-70
2021/07/10 05:53:58;;;;;;;25.30;10.20;;;;;;;16.37;76.79;101548.25;5037893;28;20032;-71
2021/07/10 05:56:23;;;;;;;24.65;10.27;;;;;;;16.44;75.85;101548.34;5053961;28;20108;-70
2021/07/10 05:58:49;;;;;;;18.38;10.07;;;;;;;16.48;75.65;101550.44;5023775;28;20617;-71
2021/07/10 06:01:14;;;;;;;15.68;8.27;;;;;;;16.53;75.76;101550.69;5039657;28;20082;-70
2021/07/10 06:03:40;;;;;;;19.50;9.35;;;;;;;16.69;75.90;101554.19;5037981;28;20036;-71
2021/07/10 06:06:05;;;;;;;19.92;9.20;;;;;;;16.85;76.57;101540.94;5051934;28;20098;-70
2021/07/10 06:08:31;;;;;;;24.85;10.68;;;;;;;17.08;76.80;101534.81;5034368;28;20081;-71
2021/07/10 06:10:56;;;;;;;17.20;9.90;;;;;;;17.24;74.79;101537.25;5035245;28;20048;-71
2021/07/10 06:13:22;;;;;;;17.38;9.32;;;;;;;17.35;74.11;101540.38;5029566;28;20240;-71
2021/07/10 06:15:48;;;;;;;16.90;8.60;;;;;;;17.75;73.27;101533.00;5039125;28;20025;-70
2021/07/10 06:18:13;;;;;;;17.80;8.63;;;;;;;18.26;71.12;101535.53;5037820;28;20029;-70
2021/07/10 06:20:39;;;;;;;16.80;8.90;;;;;;;18.59;69.26;101534.97;5035103;28;20039;-70
2021/07/10 06:23:05;;;;;;;14.68;8.00;;;;;;;18.70;68.56;101533.63;5054544;28;20024;-71
2021/07/10 06:25:33;;;;;;;18.20;8.80;;;;;;;18.62;67.53;101529.34;5051355;28;20045;-71
2021/07/10 06:27:59;;;;;;;12.50;6.78;;;;;;;18.55;68.35;101534.53;5032499;28;20040;-71
2021/07/10 06:30:25;;;;;;;18.17;8.10;;;;;;;18.60;69.40;101533.97;5035355;28;20033;-71
2021/07/10 06:32:50;;;;;;;16.55;9.15;;;;;;;18.81;67.50;101531.31;5030491;28;20029;-71
2021/07/10 06:35:16;;;;;;;24.83;9.27;;;;;;;19.01;67.08;101525.38;5024341;28;20048;-70
2021/07/10 06:37:42;;;;;;;16.83;8.77;;;;;;;19.25;66.56;101522.25;5029884;28;20040;-71
2021/07/10 06:40:10;;;;;;;19.00;8.85;;;;;;;19.42;65.61;101516.63;5033640;28;20175;-71
2021/07/10 06:42:36;;;;;;;14.77;8.25;;;;;;;19.37;65.86;101519.06;5050844;28;20029;-70
2021/07/10 06:45:03;;;;;;;11.60;8.02;;;;;;;19.35;65.56;101515.84;5034623;28;20445;-70
2021/07/10 06:47:28;;;;;;;21.38;9.02;;;;;;;19.39;64.78;101517.84;5055908;28;20044;-70
2021/07/10 06:49:54;;;;;;;16.48;8.27;;;;;;;19.34;64.81;101522.09;5050192;28;20017;-71
2021/07/10 06:52:19;;;;;;;14.70;7.55;;;;;;;19.34;65.38;101520.25;5042305;28;20061;-70
2021/07/10 06:54:45;;;;;;;12.25;7.00;;;;;;;19.36;64.97;101523.50;5052766;28;20021;-69
2021/07/10 06:57:10;;;;;;;10.57;6.95;;;;;;;19.27;65.45;101527.31;5050547;28;20445;-71
2021/07/10 06:59:35;;;;;;;11.02;6.63;;;;;;;19.26;65.93;101523.88;5055978;28;20024;-70
2021/07/10 07:02:01;;;;;;;11.40;6.97;;;;;;;19.76;65.25;101523.66;5025959;28;20028;-70
2021/07/10 07:04:26;;;;;;;13.63;7.35;;;;;;;20.58;63.25;101520.84;5035447;28;20028;-71
2021/07/10 07:06:52;;;;;;;14.73;7.25;;;;;;;21.35;60.39;101515.78;5034425;28;20020;-71
2021/07/10 07:09:17;;;;;;;12.75;6.97;;;;;;;21.96;58.51;101519.69;5054205;28;20040;-71
2021/07/10 07:11:43;;;;;;;12.60;7.40;;;;;;;22.44;56.83;101507.78;5050308;28;20032;-70
2021/07/10 07:14:09;;;;;;;12.63;7.07;;;;;;;22.81;54.98;101508.63;5029767;28;20550;-72
2021/07/10 07:16:34;;;;;;;14.02;7.20;;;;;;;23.12;54.75;101509.50;5029789;28;20449;-72
2021/07/10 07:19:01;;;;;;;12.45;6.93;;;;;;;23.29;53.17;101518.41;5011831;28;20420;-70
2021/07/10 07:21:27;;;;;;;11.90;6.30;;;;;;;23.47;51.70;101514.94;5019476;28;20113;-71
2021/07/10 07:23:54;;;;;;;13.00;7.28;;;;;;;23.58;52.66;101513.34;5046692;28;20056;-72
2021/07/10 07:26:22;;;;;;;16.63;8.80;;;;;;;23.59;52.24;101514.19;5031795;28;20036;-70
2021/07/10 07:28:48;;;;;;;15.05;8.82;;;;;;;23.51;52.64;101507.38;5047470;28;20110;-71
2021/07/10 07:31:13;;;;;;;12.48;7.82;;;;;;;23.15;54.36;101509.06;5048888;28;20040;-71
2021/07/10 07:33:39;;;;;;;10.43;6.32;;;;;;;23.13;54.51;101503.16;5024299;28;20033;-71
2021/07/10 07:36:05;;;;;;;15.85;8.50;;;;;;;23.26;53.54;101502.19;5016855;28;20184;-70
2021/07/10 07:38:31;;;;;;;10.25;7.28;;;;;;;23.44;53.03;101504.78;5047526;28;20467;-72
2021/07/10 07:40:59;;;;;;;11.20;6.90;;;;;;;23.75;51.49;101502.91;5032442;28;20407;-71
2021/07/10 07:43:25;;;;;;;11.57;6.90;;;;;;;23.98;51.51;101504.03;5029079;28;20043;-71
2021/07/10 07:45:51;;;;;;;11.38;7.78;;;;;;;23.91;51.75;101504.16;5054332;28;20040;-71
2021/07/10 07:48:17;;;;;;;12.13;7.95;;;;;;;24.18;50.46;101498.41;5032255;28;20469;-71
2021/07/10 07:50:43;;;;;;;12.25;7.57;;;;;;;24.43;51.10;101498.16;5056959;28;20440;-72
2021/07/10 07:53:09;;;;;;;10.15;7.40;;;;;;;24.42;50.43;101497.38;5032938;28;20029;-70
2021/07/10 07:55:36;;;;;;;12.35;7.00;;;;;;;24.38;50.26;101495.44;5032724;28;20487;-72
2021/07/10 07:58:03;;;;;;;11.77;6.88;;;;;;;24.46;49.51;101501.16;5051749;28;20025;-73
2021/07/10 08:00:28;;;;;;;12.80;6.53;;;;;;;24.36;50.87;101503.59;5032414;28;20031;-71
2021/07/10 08:02:54;;;;;;;8.40;5.88;;;;;;;24.54;50.13;101497.38;5044269;28;20310;-71
2021/07/10 08:05:19;;;;;;;12.32;7.53;;;;;;;24.59;50.47;101494.03;5042866;28;20029;-72
2021/07/10 08:07:45;;;;;;;13.55;7.25;;;;;;;24.51;48.50;101494.38;5052455;28;20586;-71
2021/07/10 08:10:12;;;;;;;11.80;7.78;;;;;;;24.53;50.77;101493.13;5045815;28;20052;-70
2021/07/10 08:12:39;;;;;;;12.57;7.10;;;;;;;24.69;47.05;101488.94;5037824;28;20772;-70
2021/07/10 08:15:06;;;;;;;10.25;6.10;;;;;;;24.42;48.73;101488.63;5046610;28;20664;-69
2021/07/10 08:17:32;;;;;;;9.80;5.28;;;;;;;24.38;47.87;101484.81;5045507;28;20368;-72
2021/07/10 08:19:57;;;;;;;10.15;5.53;;;;;;;24.60;48.38;101479.72;5026672;28;20028;-70
2021/07/10 08:22:23;;;;;;;9.55;5.80;;;;;;;24.59;48.22;101476.28;5050994;28;20431;-71
2021/07/10 08:24:49;;;;;;;11.02;6.68;;;;;;;24.98;47.35;101475.75;5028693;28;20025;-70
2021/07/10 08:27:14;;;;;;;11.75;6.40;;;;;;;25.10;46.38;101465.88;5030768;28;20040;-71
2021/07/10 08:29:40;;;;;;;11.00;5.75;;;;;;;25.18;47.17;101467.34;5045021;28;20410;-72
2021/07/10 08:32:07;;;;;;;9.57;5.80;;;;;;;25.40;48.62;101464.84;5035718;28;20561;-72
2021/07/10 08:34:32;;;;;;;10.90;6.15;;;;;;;25.57;47.02;101462.22;5032631;28;20063;-72
2021/07/10 08:37:00;;;;;;;9.50;5.57;;;;;;;25.36;46.55;101466.38;5036524;28;20086;-72
2021/07/10 08:39:25;;;;;;;10.63;5.97;;;;;;;25.05;46.16;101460.47;5021736;28;20045;-70
2021/07/10 08:41:51;;;;;;;7.75;5.28;;;;;;;24.84;46.54;101464.59;5033108;28;20513;-71
2021/07/10 08:44:16;;;;;;;11.65;5.05;;;;;;;24.85;47.73;101456.41;5039630;28;20482;-71
2021/07/10 08:46:43;;;;;;;8.27;5.60;;;;;;;24.83;47.45;101455.84;5037966;28;20092;-71
2021/07/10 08:49:11;;;;;;;8.75;4.97;;;;;;;24.82;48.79;101456.06;5060084;28;20077;-71
2021/07/10 08:51:37;;;;;;;6.93;4.30;;;;;;;24.81;49.01;101455.25;5053953;28;20032;-71
2021/07/10 08:54:02;;;;;;;9.07;4.72;;;;;;;24.78;47.84;101449.63;5056658;28;20086;-71
2021/07/10 08:56:28;;;;;;;7.30;4.78;;;;;;;24.57;48.22;101454.50;5035043;28;20033;-71
2021/07/10 08:58:53;;;;;;;7.72;4.50;;;;;;;24.57;48.93;101446.56;5051625;28;20024;-71
2021/07/10 09:01:19;;;;;;;6.63;4.00;;;;;;;24.43;47.84;101450.47;5056357;28;20672;-70
2021/07/10 09:03:44;;;;;;;6.18;5.18;;;;;;;24.31;48.69;101452.34;5037779;28;20017;-71
2021/07/10 09:06:10;;;;;;;7.88;5.60;;;;;;;24.32;48.92;101449.47;5052502;28;20049;-72
2021/07/10 09:08:35;;;;;;;9.90;5.10;;;;;;;24.24;49.14;101453.28;5036214;28;20029;-71
2021/07/10 09:11:13;;;;;;;7.30;4.93;;;;;;;24.14;49.11;101450.38;5049025;28;20033;-70
2021/07/10 09:13:51;;;;;;;10.98;5.78;;;;;;;24.04;49.67;101445.66;5048652;28;20303;-71
2021/07/10 09:16:22;;;;;;;14.23;5.60;;;;;;;24.09;50.60;101444.97;5045247;28;20044;-71
2021/07/10 09:18:53;;;;;;;9.23;5.93;;;;;;;24.03;51.41;101437.94;5049325;28;20033;-70
2021/07/10 09:21:41;;;;;;;7.78;4.78;;;;;;;24.08;51.11;101438.06;5027782;28;20025;-71
2021/07/10 09:24:13;;;;;;;7.22;4.22;;;;;;;24.13;50.89;101437.34;5014330;28;20029;-72
2021/07/10 09:26:43;;;;;;;8.27;4.75;;;;;;;24.18;49.43;101440.94;5049954;28;20429;-71
2021/07/10 09:29:15;;;;;;;6.85;4.57;;;;;;;24.20;49.67;101436.19;5033083;28;20317;-70
2021/07/10 09:31:46;;;;;;;9.20;4.93;;;;;;;24.30;49.74;101438.28;5047232;28;20155;-71
2021/07/10 09:34:15;;;;;;;7.32;4.50;;;;;;;24.37;50.53;101438.94;5015201;28;20094;-71
2021/07/10 09:36:56;;;;;;;9.55;5.30;;;;;;;24.42;49.32;101435.63;5046692;28;20098;-71
2021/07/10 09:39:23;;;;;;;8.15;4.85;;;;;;;24.37;50.20;101435.50;5034532;28;20762;-71
2021/07/10 09:41:49;;;;;;;7.10;4.75;;;;;;;24.35;50.08;101427.78;5032979;28;20025;-72
2021/07/10 09:44:16;;;;;;;8.80;4.72;;;;;;;24.32;49.09;101432.75;5033158;28;20478;-71
2021/07/10 09:46:43;;;;;;;6.78;4.20;;;;;;;24.27;48.43;101426.28;5020695;28;20036;-72
2021/07/10 09:49:22;;;;;;;8.60;4.78;;;;;;;24.17;49.71;101426.09;5020235;28;20631;-72
2021/07/10 09:51:47;;;;;;;6.28;3.97;;;;;;;24.19;50.33;101426.66;5056352;28;20043;-71
2021/07/10 09:54:13;;;;;;;8.07;4.15;;;;;;;24.27;50.44;101417.56;5054177;28;20021;-71
2021/07/10 09:57:00;;;;;;;10.23;5.47;;;;;;;24.31;48.83;101421.34;5047995;28;20025;-71
2021/07/10 09:59:26;;;;;;;5.63;3.75;;;;;;;24.30;49.68;101417.09;5035209;28;20087;-72
2021/07/10 10:01:52;;;;;;;5.72;4.00;;;;;;;24.21;49.55;101416.63;5030690;28;20021;-72
2021/07/10 10:04:25;;;;;;;6.45;4.75;;;;;;;24.20;49.79;101415.00;5047574;28;20040;-72
2021/07/10 10:06:51;;;;;;;;;;;;;;;24.09;49.21;101413.19;5030880;28;20056;-71
2021/07/10 10:09:20;;;;;;;5.35;4.18;;;;;;;24.16;49.76;101419.16;5036405;28;19908;-70
2021/07/10 10:11:52;;;;;;;7.88;4.53;;;;;;;24.26;50.50;101411.44;5054245;28;20029;-71
2021/07/10 10:14:18;;;;;;;7.90;4.32;;;;;;;24.12;49.76;101410.06;5055427;28;20029;-71
2021/07/10 10:16:46;;;;;;;6.75;4.20;;;;;;;24.14;48.95;101405.34;5024925;28;20036;-71
2021/07/10 10:19:21;;;;;;;8.40;3.83;;;;;;;24.15;49.59;101406.16;5029221;28;20033;-71
2021/07/10 10:21:49;;;;;;;6.90;4.38;;;;;;;24.26;49.93;101414.09;5048648;28;20028;-72
2021/07/10 10:24:16;;;;;;;4.95;3.45;;;;;;;24.32;50.35;101403.59;5036296;28;20398;-71
2021/07/10 10:26:42;;;;;;;7.45;4.20;;;;;;;24.33;48.84;101402.56;5034761;28;20143;-71
2021/07/10 10:29:09;;;;;;;6.32;3.60;;;;;;;24.31;49.58;101397.50;5029012;28;20025;-71
2021/07/10 10:31:37;;;;;;;7.43;4.45;;;;;;;24.19;49.95;101396.72;5033890;28;20033;-71
2021/07/10 10:34:04;;;;;;;6.20;3.70;;;;;;;24.17;49.57;101396.94;5033541;28;20028;-70
2021/07/10 10:36:30;;;;;;;8.10;4.03;;;;;;;24.15;50.40;101384.97;5044973;28;20253;-71
2021/07/10 10:38:55;;;;;;;10.50;4.30;;;;;;;24.38;46.75;101384.13;5033196;28;20044;-69
2021/07/10 10:41:22;;;;;;;6.25;4.28;;;;;;;24.25;46.89;101385.97;5030804;28;20112;-70
2021/07/10 10:43:53;;;;;;;9.68;4.22;;;;;;;24.29;46.93;101389.78;5040394;28;20016;-73
2021/07/10 10:46:20;;;;;;;8.85;5.07;;;;;;;24.41;47.78;101388.94;5049075;28;20091;-73
2021/07/10 10:48:46;;;;;;;6.18;4.15;;;;;;;24.24;48.34;101389.69;5053611;28;20576;-73
2021/07/10 10:51:32;;;;;;;6.43;4.20;;;;;;;24.04;48.65;101379.44;5044761;28;20036;-73
2021/07/10 10:54:29;;;;;;;7.53;4.53;;;;;;;24.04;49.93;101376.00;5038647;28;20064;-74
2021/07/10 10:56:54;;;;;;;5.20;4.00;;;;;;;24.04;48.63;101374.16;5021878;28;20068;-72
2021/07/10 10:59:33;;;;;;;6.70;4.15;;;;;;;23.84;49.71;101376.34;5058648;28;20039;-73
2021/07/10 11:01:59;;;;;;;6.00;4.30;;;;;;;23.73;50.26;101371.81;5053967;28;20107;-73
2021/07/10 11:04:57;;;;;;;5.97;4.55;;;;;;;23.55;49.77;101370.09;5048837;28;20039;-74
2021/07/10 11:07:29;;;;;;;8.32;4.03;;;;;;;23.55;49.67;101367.47;5026573;28;20061;-73
2021/07/10 11:10:14;;;;;;;5.78;3.85;;;;;;;23.63;50.44;101364.47;5048148;28;20116;-72
2021/07/10 11:12:46;;;;;;;10.55;6.80;;;;;;;23.73;50.02;101366.53;5046072;28;20060;-73
2021/07/10 11:15:34;;;;;;;7.38;4.70;;;;;;;23.71;50.44;101364.94;5035877;28;20446;-74